Monday, August 29, 2016
08:55 UTC
  |  Log In   |  Register Free
Airport Search:

Chanute Martin Johnson Airport
(KCNU)

Chanute Martin Johnson Airport Diagram
No Airport Diagram Available

FAA data valid effective Jul 21 2016 - Sep 15 2016 (unless otherwise noted).

 
 
 
 
 
 
 
 
 
 
 
 
 
 
Current Aviation Weather for KCNU

Weather Summary


The most recent METAR observation for CNU was updated at: 12:52 UTC
METAR for CNU is not available. Closest METAR is for
METAR

METAR KCNU 290752Z 11004KT 10SM CLR 22/21 A3010 RMK AO2 SLP180 T02170206

METAR KCNU 290652Z 10005KT 10SM CLR 23/21 A3011 RMK AO2 SLP182 T02280211

METAR KCFV 290752Z 00000KT 10SM CLR 21/20 A3009 RMK AO2 SLP181 T02110200

METAR KIDP 290835Z 04003KT 10SM CLR 21/19 A3010 RMK AO2

METAR KK88 290835Z 00000KT 7SM 20/20 A3012 RMK AO1 T02000200

TAF for CNU is not available.
TAF

KCNU - TAF KCNU 290520Z 2906/3006 07005KT P6SM SCT250

KCNU - FM290900 VRB04KT 4SM BR FEW200

KCNU - FM291200 14009KT P6SM SCT200

KCNU - FM291800 10010KT P6SM SCT060 BKN200 =

GlobalAir.com is loading additional information.
 Current Weather at CNU
73.0 F° (22.8 C°)

East winds at 5.8 mph
Pressure:
30.11 in
Humidity:
90%
Wind:
East at 5.8 mph
Dew Point:
70.0 F° (21.1 C°)
Visibility:
10.00 mi
CNU NOAA Radar




Find All Airport Services Find A Hotel Find A Rental Car Find A Golf Course Find A Restaurant $100 Hamburger



Airport Weather Forecast for KCNU

Translated METAR for KCNU (0752 UTC)
METAR:
KCNU 290752Z AUTO Chanute Martin Johnson, Chanute, KS (KCNU). Aug 29, 0752Z, Automated. Wind from 110° at 4 knots, 10 statute miles visibility, Clear Skies, Temperature 22°C, Dewpoint 21°C, Altimeter is 30.10. Remarks: automated station with precipitation discriminator sea level pressure 1018.0 hectopascals hourly temp 21.7°C dewpoint 20.6°C
Conditions at:
KCNU (Chanute Martin Johnson, KS) observed 0752 UTC 29 August 2016
Temperature:
73.0 F° (22.8 C°)
Dewpoint:
not reported - refer to area weather report
Pressure:
30.11 Hg
Winds:
not reported
Visibility:
10.00
Ceiling:
at least 12,000 feet AGL
Clouds:
not reported - refer to area weather report
Remarks:
site is un-manned

Translated TAF for TAF for CNU is not available. Refer to local area forecast.
FBO's on the Field
FBO Company Facility Photos Services Transportation Aviation Fuel Prices: Prices include tax
Catering Weather Repair Courtesy Rental Type 100LL JetA JetA+ MOGAS 8087
 
City of Chanute

This FBO has not yet been rated
FS:Phillips 66
Last Updated: Aug-05
Login to update fuel prices
SS:
Contact City of ChanuteMore FBO Information
 
Add another FBO Facility Photos Catering Weather Repair Courtesy Rental Type 100LL JetA JetA+ MOGAS 8087
Services Transportation Aviation Fuel Prices: Prices include tax


model-print
model-print
model-print
model-print